sensor_id;sensor_type;location;lat;lon;timestamp;P1;durP1;ratioP1;P2;durP2;ratioP2
49820;SDS011;36893;52.520;13.450;2023-01-09T00:09:58;7.97;;;3.50;;
49820;SDS011;36893;52.520;13.450;2023-01-09T00:19:58;6.57;;;3.27;;
49820;SDS011;36893;52.520;13.450;2023-01-09T00:29:59;5.80;;;2.67;;
49820;SDS011;36893;52.520;13.450;2023-01-09T00:40:00;6.70;;;3.15;;
49820;SDS011;36893;52.520;13.450;2023-01-09T00:50:05;6.03;;;3.23;;
49820;SDS011;36893;52.520;13.450;2023-01-09T01:00:11;5.32;;;3.20;;
49820;SDS011;36893;52.520;13.450;2023-01-09T01:10:13;8.02;;;3.63;;
49820;SDS011;36893;52.520;13.450;2023-01-09T01:20:19;7.68;;;3.53;;
49820;SDS011;36893;52.520;13.450;2023-01-09T01:30:20;5.20;;;3.00;;
49820;SDS011;36893;52.520;13.450;2023-01-09T01:40:20;6.53;;;3.60;;
49820;SDS011;36893;52.520;13.450;2023-01-09T02:00:29;4.60;;;2.83;;
49820;SDS011;36893;52.520;13.450;2023-01-09T02:10:34;5.30;;;2.60;;
49820;SDS011;36893;52.520;13.450;2023-01-09T02:30:55;5.15;;;2.85;;
49820;SDS011;36893;52.520;13.450;2023-01-09T02:41:13;5.95;;;3.00;;
49820;SDS011;36893;52.520;13.450;2023-01-09T03:01:51;7.25;;;2.83;;
49820;SDS011;36893;52.520;13.450;2023-01-09T03:12:19;5.35;;;2.22;;
49820;SDS011;36893;52.520;13.450;2023-01-09T03:22:22;6.50;;;2.72;;
49820;SDS011;36893;52.520;13.450;2023-01-09T03:32:23;7.30;;;2.53;;
49820;SDS011;36893;52.520;13.450;2023-01-09T03:42:24;5.40;;;2.80;;
49820;SDS011;36893;52.520;13.450;2023-01-09T03:52:24;3.83;;;2.47;;
49820;SDS011;36893;52.520;13.450;2023-01-09T04:02:25;4.50;;;2.30;;
49820;SDS011;36893;52.520;13.450;2023-01-09T04:12:26;6.82;;;2.55;;
49820;SDS011;36893;52.520;13.450;2023-01-09T04:22:27;3.47;;;2.17;;
49820;SDS011;36893;52.520;13.450;2023-01-09T04:32:30;4.25;;;2.35;;
49820;SDS011;36893;52.520;13.450;2023-01-09T04:42:30;3.37;;;1.87;;
49820;SDS011;36893;52.520;13.450;2023-01-09T04:52:31;5.47;;;2.23;;
49820;SDS011;36893;52.520;13.450;2023-01-09T05:02:32;7.20;;;2.07;;
49820;SDS011;36893;52.520;13.450;2023-01-09T05:12:32;5.33;;;2.57;;
49820;SDS011;36893;52.520;13.450;2023-01-09T05:22:36;5.43;;;2.53;;
49820;SDS011;36893;52.520;13.450;2023-01-09T05:32:36;5.50;;;2.30;;
49820;SDS011;36893;52.520;13.450;2023-01-09T05:42:37;6.23;;;2.73;;
49820;SDS011;36893;52.520;13.450;2023-01-09T05:52:38;4.22;;;2.08;;
49820;SDS011;36893;52.520;13.450;2023-01-09T06:02:38;2.67;;;1.50;;
49820;SDS011;36893;52.520;13.450;2023-01-09T06:12:40;3.33;;;1.80;;
49820;SDS011;36893;52.520;13.450;2023-01-09T06:22:43;3.00;;;1.45;;
49820;SDS011;36893;52.520;13.450;2023-01-09T06:32:44;3.40;;;1.73;;
49820;SDS011;36893;52.520;13.450;2023-01-09T06:42:49;5.45;;;2.25;;
49820;SDS011;36893;52.520;13.450;2023-01-09T06:52:50;2.67;;;1.63;;
49820;SDS011;36893;52.520;13.450;2023-01-09T07:02:51;5.07;;;2.27;;
49820;SDS011;36893;52.520;13.450;2023-01-09T07:12:51;4.87;;;1.77;;
49820;SDS011;36893;52.520;13.450;2023-01-09T07:22:52;3.60;;;2.00;;
49820;SDS011;36893;52.520;13.450;2023-01-09T07:32:53;4.63;;;1.83;;
49820;SDS011;36893;52.520;13.450;2023-01-09T07:42:53;4.57;;;2.00;;
49820;SDS011;36893;52.520;13.450;2023-01-09T07:52:54;7.77;;;2.40;;
49820;SDS011;36893;52.520;13.450;2023-01-09T08:02:55;4.80;;;2.33;;
49820;SDS011;36893;52.520;13.450;2023-01-09T08:12:55;3.20;;;1.97;;
49820;SDS011;36893;52.520;13.450;2023-01-09T08:22:56;3.67;;;1.90;;
49820;SDS011;36893;52.520;13.450;2023-01-09T08:32:57;5.25;;;2.55;;
49820;SDS011;36893;52.520;13.450;2023-01-09T08:42:57;4.57;;;2.27;;
49820;SDS011;36893;52.520;13.450;2023-01-09T08:53:17;6.95;;;2.60;;
49820;SDS011;36893;52.520;13.450;2023-01-09T09:03:17;3.70;;;2.30;;
49820;SDS011;36893;52.520;13.450;2023-01-09T09:13:18;8.80;;;2.43;;
49820;SDS011;36893;52.520;13.450;2023-01-09T09:23:19;6.70;;;2.43;;
49820;SDS011;36893;52.520;13.450;2023-01-09T09:33:19;6.87;;;2.67;;
49820;SDS011;36893;52.520;13.450;2023-01-09T09:43:23;10.90;;;2.57;;
49820;SDS011;36893;52.520;13.450;2023-01-09T09:54:01;6.47;;;2.88;;
49820;SDS011;36893;52.520;13.450;2023-01-09T10:04:10;6.03;;;2.58;;
49820;SDS011;36893;52.520;13.450;2023-01-09T10:14:14;6.28;;;2.20;;
49820;SDS011;36893;52.520;13.450;2023-01-09T10:24:31;7.40;;;2.57;;
49820;SDS011;36893;52.520;13.450;2023-01-09T10:35:01;5.88;;;2.25;;
49820;SDS011;36893;52.520;13.450;2023-01-09T10:45:56;5.68;;;2.80;;
49820;SDS011;36893;52.520;13.450;2023-01-09T10:55:54;4.65;;;2.00;;
49820;SDS011;36893;52.520;13.450;2023-01-09T11:06:00;7.93;;;2.13;;
49820;SDS011;36893;52.520;13.450;2023-01-09T11:26:24;10.85;;;2.92;;
49820;SDS011;36893;52.520;13.450;2023-01-09T11:36:27;9.40;;;4.55;;
49820;SDS011;36893;52.520;13.450;2023-01-09T11:46:38;11.27;;;3.85;;
49820;SDS011;36893;52.520;13.450;2023-01-09T11:56:41;9.65;;;3.03;;
49820;SDS011;36893;52.520;13.450;2023-01-09T12:17:44;9.27;;;3.15;;
49820;SDS011;36893;52.520;13.450;2023-01-09T12:59:23;8.20;;;3.03;;
49820;SDS011;36893;52.520;13.450;2023-01-09T13:09:40;8.27;;;2.40;;
49820;SDS011;36893;52.520;13.450;2023-01-09T13:19:48;4.18;;;2.00;;
49820;SDS011;36893;52.520;13.450;2023-01-09T13:29:50;5.80;;;2.63;;
49820;SDS011;36893;52.520;13.450;2023-01-09T13:40:01;6.57;;;2.30;;
49820;SDS011;36893;52.520;13.450;2023-01-09T14:20:34;5.20;;;1.85;;
49820;SDS011;36893;52.520;13.450;2023-01-09T14:31:00;4.75;;;1.90;;
49820;SDS011;36893;52.520;13.450;2023-01-09T14:41:00;4.50;;;2.13;;
49820;SDS011;36893;52.520;13.450;2023-01-09T14:51:17;7.95;;;2.28;;
49820;SDS011;36893;52.520;13.450;2023-01-09T15:01:21;6.60;;;2.20;;
49820;SDS011;36893;52.520;13.450;2023-01-09T15:11:22;8.18;;;2.60;;
49820;SDS011;36893;52.520;13.450;2023-01-09T15:21:25;6.20;;;2.53;;
49820;SDS011;36893;52.520;13.450;2023-01-09T15:31:29;20.17;;;2.97;;
49820;SDS011;36893;52.520;13.450;2023-01-09T15:41:30;7.93;;;2.35;;
49820;SDS011;36893;52.520;13.450;2023-01-09T15:51:51;6.05;;;2.40;;
49820;SDS011;36893;52.520;13.450;2023-01-09T16:01:59;5.05;;;1.63;;
49820;SDS011;36893;52.520;13.450;2023-01-09T16:12:22;4.82;;;2.00;;
49820;SDS011;36893;52.520;13.450;2023-01-09T16:22:32;7.25;;;1.50;;
49820;SDS011;36893;52.520;13.450;2023-01-09T16:32:35;3.88;;;1.67;;
49820;SDS011;36893;52.520;13.450;2023-01-09T16:42:59;5.50;;;2.17;;
49820;SDS011;36893;52.520;13.450;2023-01-09T16:53:00;4.80;;;2.10;;
49820;SDS011;36893;52.520;13.450;2023-01-09T17:03:15;9.88;;;2.28;;
49820;SDS011;36893;52.520;13.450;2023-01-09T17:13:16;5.38;;;1.95;;
49820;SDS011;36893;52.520;13.450;2023-01-09T17:23:17;8.55;;;1.92;;
49820;SDS011;36893;52.520;13.450;2023-01-09T17:33:21;5.03;;;1.80;;
49820;SDS011;36893;52.520;13.450;2023-01-09T17:43:21;4.53;;;1.90;;
49820;SDS011;36893;52.520;13.450;2023-01-09T17:53:23;4.80;;;2.10;;
49820;SDS011;36893;52.520;13.450;2023-01-09T18:03:24;9.93;;;2.60;;
49820;SDS011;36893;52.520;13.450;2023-01-09T18:13:32;8.15;;;2.28;;
49820;SDS011;36893;52.520;13.450;2023-01-09T18:23:36;4.07;;;2.00;;
49820;SDS011;36893;52.520;13.450;2023-01-09T18:33:37;7.75;;;2.30;;
49820;SDS011;36893;52.520;13.450;2023-01-09T18:43:38;6.93;;;1.90;;
49820;SDS011;36893;52.520;13.450;2023-01-09T18:53:38;15.37;;;3.03;;
49820;SDS011;36893;52.520;13.450;2023-01-09T19:03:39;9.53;;;2.53;;
49820;SDS011;36893;52.520;13.450;2023-01-09T19:13:41;6.53;;;2.20;;
49820;SDS011;36893;52.520;13.450;2023-01-09T19:23:42;4.88;;;1.60;;
49820;SDS011;36893;52.520;13.450;2023-01-09T19:33:44;11.57;;;2.17;;
49820;SDS011;36893;52.520;13.450;2023-01-09T19:43:45;5.33;;;1.50;;
49820;SDS011;36893;52.520;13.450;2023-01-09T19:53:50;12.55;;;2.53;;
49820;SDS011;36893;52.520;13.450;2023-01-09T20:03:53;7.10;;;2.00;;
49820;SDS011;36893;52.520;13.450;2023-01-09T20:14:01;5.68;;;2.10;;
49820;SDS011;36893;52.520;13.450;2023-01-09T20:24:02;3.90;;;1.93;;
49820;SDS011;36893;52.520;13.450;2023-01-09T20:34:04;7.47;;;1.95;;
49820;SDS011;36893;52.520;13.450;2023-01-09T20:44:06;2.53;;;1.33;;
49820;SDS011;36893;52.520;13.450;2023-01-09T20:54:11;4.03;;;1.70;;
49820;SDS011;36893;52.520;13.450;2023-01-09T21:04:13;4.78;;;1.98;;
49820;SDS011;36893;52.520;13.450;2023-01-09T21:14:13;6.30;;;1.83;;
49820;SDS011;36893;52.520;13.450;2023-01-09T21:24:14;2.33;;;1.57;;
49820;SDS011;36893;52.520;13.450;2023-01-09T21:34:14;4.57;;;1.57;;
49820;SDS011;36893;52.520;13.450;2023-01-09T21:54:38;5.05;;;1.80;;
49820;SDS011;36893;52.520;13.450;2023-01-09T22:04:40;3.15;;;1.33;;
49820;SDS011;36893;52.520;13.450;2023-01-09T22:14:42;4.85;;;1.60;;
49820;SDS011;36893;52.520;13.450;2023-01-09T22:24:42;5.32;;;1.17;;
49820;SDS011;36893;52.520;13.450;2023-01-09T22:34:43;3.57;;;2.03;;
49820;SDS011;36893;52.520;13.450;2023-01-09T22:44:44;2.70;;;1.57;;
49820;SDS011;36893;52.520;13.450;2023-01-09T22:54:44;4.28;;;1.80;;
49820;SDS011;36893;52.520;13.450;2023-01-09T23:04:45;3.53;;;1.73;;
49820;SDS011;36893;52.520;13.450;2023-01-09T23:14:46;3.30;;;1.37;;
49820;SDS011;36893;52.520;13.450;2023-01-09T23:24:47;4.13;;;1.40;;
49820;SDS011;36893;52.520;13.450;2023-01-09T23:34:47;6.60;;;1.40;;
49820;SDS011;36893;52.520;13.450;2023-01-09T23:44:48;3.57;;;1.40;;
49820;SDS011;36893;52.520;13.450;2023-01-09T23:54:49;2.33;;;1.20;;
